Airfield :
LOGIN :

Register | Disclaimer

   EN    FR    IT 

 










Legend :    VFR   Marginal VFR   IFR   Intensive IFR   Very Intensive IFR
Visi :
Ceiling :
>= 8 km
>= 3000ft
5 to 8 km
1000 to 3000 ft
1500m to 5 km
500 to 1000 ft
800 to 1500m
200 to 500 ft
< 800m
< 200 ft
Symbols :   Thunderstorms  Fog  Heavy snow  Heavy precipitations  Wind > 20 kt
SIGMETs :     Misc.  Thunderstorms  Icing  Turbulence  Mountain Waves  Volcanic Ashes






- Airport Elevation : 782 ft
- IATA code : BGY


LIME - Orio al Serio International - Bergamo

CURRENT METAR :
  • 230920Z 19003KT 130V240 9000 NSC 15/10 Q1023 NOSIG

EXPIRED METARs :
  • 230850Z VRB01KT 8000 FEW030 14/11 Q1023 NOSIG
  • 230820Z VRB01KT 8000 FEW030 13/10 Q1023 NOSIG
  • 230750Z VRB02KT 8000 NSC 12/10 Q1023 NOSIG
  • 230720Z 36003KT 320V020 8000 NSC 11/10 Q1022 NOSIG
  • 230650Z 01004KT 8000 NSC 11/09 Q1022 NOSIG

TAF TAF LIME
Valid from the 23 at 06:00 until the 24 at 06:00 UTC


230500Z 2306/2406 VRB05KT 8000 SCT015
TEMPO 2306/2308 0800 BCFG BKN002
BECMG 2318/2320 3000 BR
TEMPO 2400/2406 0800 BCFG BKN002



MET'MAP, your aeronautical weather chart ! - Copyright ORBIFLY December 2007 - Disclaimer

ORBIFLY MET'MAP TEAM :

Programming & Development : Alexandra Zaïnal
Concept & original design : Baudouin d'Aumeries
Assistance for programming : Marc-Olivier Méhu
Technical & hardware support : Manuel Goepfert

Contact : metmap@orbifly.com




SOURCES & CREDITS :

   NOAA